sensor_id;sensor_type;location;lat;lon;timestamp;temperature;humidity
20524;DHT22;10420;48.542;12.270;2022-12-18T00:04:53;-4.70;99.90
20524;DHT22;10420;48.542;12.270;2022-12-18T00:09:54;-4.80;99.90
20524;DHT22;10420;48.542;12.270;2022-12-18T00:14:55;-4.70;99.90
20524;DHT22;10420;48.542;12.270;2022-12-18T00:19:55;-4.60;99.90
20524;DHT22;10420;48.542;12.270;2022-12-18T00:24:56;-4.60;99.90
20524;DHT22;10420;48.542;12.270;2022-12-18T00:29:57;-4.60;99.90
20524;DHT22;10420;48.542;12.270;2022-12-18T00:34:57;-4.60;99.90
20524;DHT22;10420;48.542;12.270;2022-12-18T00:39:58;-4.70;99.90
20524;DHT22;10420;48.542;12.270;2022-12-18T00:44:58;-4.60;99.90
20524;DHT22;10420;48.542;12.270;2022-12-18T00:49:59;-4.60;99.90
20524;DHT22;10420;48.542;12.270;2022-12-18T00:55:00;-4.80;99.90
20524;DHT22;10420;48.542;12.270;2022-12-18T01:00:01;-4.70;99.90
20524;DHT22;10420;48.542;12.270;2022-12-18T01:05:01;-4.80;99.90
20524;DHT22;10420;48.542;12.270;2022-12-18T01:10:03;-4.70;99.90
20524;DHT22;10420;48.542;12.270;2022-12-18T01:15:05;-4.70;99.90
20524;DHT22;10420;48.542;12.270;2022-12-18T01:20:06;-4.70;99.90
20524;DHT22;10420;48.542;12.270;2022-12-18T01:25:08;-4.60;99.90
20524;DHT22;10420;48.542;12.270;2022-12-18T01:30:09;-4.60;99.90
20524;DHT22;10420;48.542;12.270;2022-12-18T01:35:10;-4.60;99.90
20524;DHT22;10420;48.542;12.270;2022-12-18T01:40:10;-4.70;99.90
20524;DHT22;10420;48.542;12.270;2022-12-18T01:50:16;-4.70;99.90
20524;DHT22;10420;48.542;12.270;2022-12-18T01:55:20;-4.60;99.90
20524;DHT22;10420;48.542;12.270;2022-12-18T02:00:23;-4.70;99.90
20524;DHT22;10420;48.542;12.270;2022-12-18T02:10:50;-4.70;99.90
20524;DHT22;10420;48.542;12.270;2022-12-18T02:26:52;-4.40;99.90
20524;DHT22;10420;48.542;12.270;2022-12-18T02:31:59;-4.60;99.90
20524;DHT22;10420;48.542;12.270;2022-12-18T02:37:03;-4.50;99.90
20524;DHT22;10420;48.542;12.270;2022-12-18T02:42:05;-4.50;99.90
20524;DHT22;10420;48.542;12.270;2022-12-18T02:47:10;-4.40;99.90
20524;DHT22;10420;48.542;12.270;2022-12-18T02:57:33;-4.50;99.90
20524;DHT22;10420;48.542;12.270;2022-12-18T03:02:56;-4.30;99.90
20524;DHT22;10420;48.542;12.270;2022-12-18T03:08:08;-4.40;99.90
20524;DHT22;10420;48.542;12.270;2022-12-18T03:13:19;-4.50;99.90
20524;DHT22;10420;48.542;12.270;2022-12-18T03:18:30;-4.50;99.90
20524;DHT22;10420;48.542;12.270;2022-12-18T03:23:43;-4.60;99.90
20524;DHT22;10420;48.542;12.270;2022-12-18T03:28:59;-4.40;99.90
20524;DHT22;10420;48.542;12.270;2022-12-18T03:34:05;-4.50;99.90
20524;DHT22;10420;48.542;12.270;2022-12-18T03:39:09;-4.50;99.90
20524;DHT22;10420;48.542;12.270;2022-12-18T03:49:48;-4.40;99.90
20524;DHT22;10420;48.542;12.270;2022-12-18T03:54:51;-4.40;99.90
20524;DHT22;10420;48.542;12.270;2022-12-18T03:59:58;-4.40;99.90
20524;DHT22;10420;48.542;12.270;2022-12-18T04:05:03;-4.50;99.90
20524;DHT22;10420;48.542;12.270;2022-12-18T04:10:06;-4.40;99.90
20524;DHT22;10420;48.542;12.270;2022-12-18T04:15:08;-4.40;99.90
20524;DHT22;10420;48.542;12.270;2022-12-18T04:20:09;-4.60;99.90
20524;DHT22;10420;48.542;12.270;2022-12-18T04:25:10;-4.50;99.90
20524;DHT22;10420;48.542;12.270;2022-12-18T04:30:11;-4.50;99.90
20524;DHT22;10420;48.542;12.270;2022-12-18T04:35:28;-4.50;99.90
20524;DHT22;10420;48.542;12.270;2022-12-18T04:40:28;-4.70;99.90
20524;DHT22;10420;48.542;12.270;2022-12-18T04:45:32;-4.70;99.90
20524;DHT22;10420;48.542;12.270;2022-12-18T04:50:33;-4.60;99.90
20524;DHT22;10420;48.542;12.270;2022-12-18T04:55:34;-4.50;99.90
20524;DHT22;10420;48.542;12.270;2022-12-18T05:00:34;-4.50;99.90
20524;DHT22;10420;48.542;12.270;2022-12-18T05:05:35;-4.50;99.90
20524;DHT22;10420;48.542;12.270;2022-12-18T05:10:36;-4.70;99.90
20524;DHT22;10420;48.542;12.270;2022-12-18T05:15:36;-4.60;99.90
20524;DHT22;10420;48.542;12.270;2022-12-18T05:20:37;-4.50;99.90
20524;DHT22;10420;48.542;12.270;2022-12-18T05:25:38;-4.50;99.90
20524;DHT22;10420;48.542;12.270;2022-12-18T05:30:38;-4.50;99.90
20524;DHT22;10420;48.542;12.270;2022-12-18T05:35:39;-4.40;99.90
20524;DHT22;10420;48.542;12.270;2022-12-18T05:40:42;-4.40;99.90
20524;DHT22;10420;48.542;12.270;2022-12-18T05:45:44;-4.50;99.90
20524;DHT22;10420;48.542;12.270;2022-12-18T05:50:45;-4.60;99.90
20524;DHT22;10420;48.542;12.270;2022-12-18T05:55:47;-4.80;99.90
20524;DHT22;10420;48.542;12.270;2022-12-18T06:00:48;-4.60;99.90
20524;DHT22;10420;48.542;12.270;2022-12-18T06:05:48;-4.60;99.90
20524;DHT22;10420;48.542;12.270;2022-12-18T06:10:50;-4.50;99.90
20524;DHT22;10420;48.542;12.270;2022-12-18T06:15:52;-4.50;99.90
20524;DHT22;10420;48.542;12.270;2022-12-18T06:20:56;-4.30;99.90
20524;DHT22;10420;48.542;12.270;2022-12-18T06:25:57;-4.50;99.90
20524;DHT22;10420;48.542;12.270;2022-12-18T06:30:57;-4.50;99.90
20524;DHT22;10420;48.542;12.270;2022-12-18T06:36:07;-4.40;99.90
20524;DHT22;10420;48.542;12.270;2022-12-18T06:41:13;-4.40;99.90
20524;DHT22;10420;48.542;12.270;2022-12-18T06:46:14;-4.30;99.90
20524;DHT22;10420;48.542;12.270;2022-12-18T06:51:23;-4.20;99.90
20524;DHT22;10420;48.542;12.270;2022-12-18T06:56:24;-4.20;99.90
20524;DHT22;10420;48.542;12.270;2022-12-18T07:01:24;-4.20;99.90
20524;DHT22;10420;48.542;12.270;2022-12-18T07:06:25;-4.40;99.90
20524;DHT22;10420;48.542;12.270;2022-12-18T07:11:31;-4.40;99.90
20524;DHT22;10420;48.542;12.270;2022-12-18T07:16:32;-4.30;99.90
20524;DHT22;10420;48.542;12.270;2022-12-18T07:21:33;-4.30;99.90
20524;DHT22;10420;48.542;12.270;2022-12-18T07:26:33;-4.30;99.90
20524;DHT22;10420;48.542;12.270;2022-12-18T07:31:34;-4.10;99.90
20524;DHT22;10420;48.542;12.270;2022-12-18T07:36:35;-4.20;99.90
20524;DHT22;10420;48.542;12.270;2022-12-18T07:41:35;-4.10;99.90
20524;DHT22;10420;48.542;12.270;2022-12-18T07:46:36;-4.10;99.90
20524;DHT22;10420;48.542;12.270;2022-12-18T07:51:36;-4.20;99.90
20524;DHT22;10420;48.542;12.270;2022-12-18T07:56:37;-4.00;99.90
20524;DHT22;10420;48.542;12.270;2022-12-18T08:01:37;-4.00;99.90
20524;DHT22;10420;48.542;12.270;2022-12-18T08:06:38;-3.90;99.90
20524;DHT22;10420;48.542;12.270;2022-12-18T08:11:39;-3.90;99.90
20524;DHT22;10420;48.542;12.270;2022-12-18T08:16:39;-4.10;99.90
20524;DHT22;10420;48.542;12.270;2022-12-18T08:21:40;-3.90;99.90
20524;DHT22;10420;48.542;12.270;2022-12-18T08:26:41;-3.80;99.90
20524;DHT22;10420;48.542;12.270;2022-12-18T08:31:42;-4.00;99.90
20524;DHT22;10420;48.542;12.270;2022-12-18T08:36:42;-4.10;99.90
20524;DHT22;10420;48.542;12.270;2022-12-18T08:41:43;-4.00;99.90
20524;DHT22;10420;48.542;12.270;2022-12-18T08:47:05;-4.00;99.90
20524;DHT22;10420;48.542;12.270;2022-12-18T08:52:06;-3.90;99.90
20524;DHT22;10420;48.542;12.270;2022-12-18T08:57:07;-3.80;99.90
20524;DHT22;10420;48.542;12.270;2022-12-18T09:02:10;-3.70;99.90
20524;DHT22;10420;48.542;12.270;2022-12-18T09:07:11;-3.50;99.90
20524;DHT22;10420;48.542;12.270;2022-12-18T09:12:11;-3.60;99.90
20524;DHT22;10420;48.542;12.270;2022-12-18T09:17:12;-3.30;99.90
20524;DHT22;10420;48.542;12.270;2022-12-18T09:22:15;-3.20;99.90
20524;DHT22;10420;48.542;12.270;2022-12-18T09:27:16;-3.50;99.90
20524;DHT22;10420;48.542;12.270;2022-12-18T09:32:16;-3.40;99.90
20524;DHT22;10420;48.542;12.270;2022-12-18T09:37:17;-3.20;99.90
20524;DHT22;10420;48.542;12.270;2022-12-18T09:42:21;-3.50;99.90
20524;DHT22;10420;48.542;12.270;2022-12-18T09:47:33;-3.60;99.90
20524;DHT22;10420;48.542;12.270;2022-12-18T09:52:40;-3.20;99.90
20524;DHT22;10420;48.542;12.270;2022-12-18T09:57:47;-3.30;99.90
20524;DHT22;10420;48.542;12.270;2022-12-18T10:02:50;-3.50;99.90
20524;DHT22;10420;48.542;12.270;2022-12-18T10:24:22;-3.40;99.90
20524;DHT22;10420;48.542;12.270;2022-12-18T10:29:25;-3.50;99.90
20524;DHT22;10420;48.542;12.270;2022-12-18T10:34:26;-3.50;99.90
20524;DHT22;10420;48.542;12.270;2022-12-18T10:39:26;-3.50;99.90
20524;DHT22;10420;48.542;12.270;2022-12-18T10:44:27;-3.30;99.90
20524;DHT22;10420;48.542;12.270;2022-12-18T10:49:31;-3.50;99.90
20524;DHT22;10420;48.542;12.270;2022-12-18T10:54:33;-3.20;99.90
20524;DHT22;10420;48.542;12.270;2022-12-18T10:59:53;-3.40;99.90
20524;DHT22;10420;48.542;12.270;2022-12-18T11:04:55;-3.40;99.90
20524;DHT22;10420;48.542;12.270;2022-12-18T11:10:04;-3.60;99.90
20524;DHT22;10420;48.542;12.270;2022-12-18T11:15:13;-3.70;99.90
20524;DHT22;10420;48.542;12.270;2022-12-18T11:20:31;-3.60;99.90
20524;DHT22;10420;48.542;12.270;2022-12-18T11:25:33;-3.40;99.90
20524;DHT22;10420;48.542;12.270;2022-12-18T11:30:36;-3.20;99.90
20524;DHT22;10420;48.542;12.270;2022-12-18T11:35:51;-3.50;99.90
20524;DHT22;10420;48.542;12.270;2022-12-18T11:51:55;-3.30;99.90
20524;DHT22;10420;48.542;12.270;2022-12-18T11:57:09;-3.50;99.90
20524;DHT22;10420;48.542;12.270;2022-12-18T12:18:47;-2.80;99.90
20524;DHT22;10420;48.542;12.270;2022-12-18T12:29:29;-3.40;99.90
20524;DHT22;10420;48.542;12.270;2022-12-18T12:34:45;-3.10;99.90
20524;DHT22;10420;48.542;12.270;2022-12-18T12:39:51;-2.90;99.90
20524;DHT22;10420;48.542;12.270;2022-12-18T12:44:56;-2.70;99.90
20524;DHT22;10420;48.542;12.270;2022-12-18T12:49:59;-3.20;99.90
20524;DHT22;10420;48.542;12.270;2022-12-18T12:55:02;-3.40;99.90
20524;DHT22;10420;48.542;12.270;2022-12-18T13:00:16;-3.10;99.90
20524;DHT22;10420;48.542;12.270;2022-12-18T13:05:54;-3.40;99.90
20524;DHT22;10420;48.542;12.270;2022-12-18T13:10:59;-3.50;99.90
20524;DHT22;10420;48.542;12.270;2022-12-18T13:16:20;-3.60;99.90
20524;DHT22;10420;48.542;12.270;2022-12-18T13:21:28;-3.40;99.90
20524;DHT22;10420;48.542;12.270;2022-12-18T13:26:30;-3.20;99.90
20524;DHT22;10420;48.542;12.270;2022-12-18T13:31:57;-2.90;99.90
20524;DHT22;10420;48.542;12.270;2022-12-18T13:37:36;-2.90;99.90
20524;DHT22;10420;48.542;12.270;2022-12-18T13:42:40;-2.90;99.90
20524;DHT22;10420;48.542;12.270;2022-12-18T13:47:59;-3.20;99.90
20524;DHT22;10420;48.542;12.270;2022-12-18T13:53:00;-3.10;99.90
20524;DHT22;10420;48.542;12.270;2022-12-18T13:58:04;-3.20;99.90
20524;DHT22;10420;48.542;12.270;2022-12-18T14:03:20;-3.30;99.90
20524;DHT22;10420;48.542;12.270;2022-12-18T14:08:21;-3.40;99.90
20524;DHT22;10420;48.542;12.270;2022-12-18T14:13:37;-3.50;99.90
20524;DHT22;10420;48.542;12.270;2022-12-18T14:18:57;-3.50;99.90
20524;DHT22;10420;48.542;12.270;2022-12-18T14:24:16;-3.50;99.90
20524;DHT22;10420;48.542;12.270;2022-12-18T14:29:26;-3.60;99.90
20524;DHT22;10420;48.542;12.270;2022-12-18T14:34:27;-3.70;99.90
20524;DHT22;10420;48.542;12.270;2022-12-18T14:39:28;-3.90;99.90
20524;DHT22;10420;48.542;12.270;2022-12-18T14:44:29;-4.00;99.90
20524;DHT22;10420;48.542;12.270;2022-12-18T14:49:32;-4.10;99.90
20524;DHT22;10420;48.542;12.270;2022-12-18T14:54:35;-4.20;99.90
20524;DHT22;10420;48.542;12.270;2022-12-18T14:59:37;-4.30;99.90
20524;DHT22;10420;48.542;12.270;2022-12-18T15:04:39;-4.30;99.90
20524;DHT22;10420;48.542;12.270;2022-12-18T15:15:02;-4.40;99.90
20524;DHT22;10420;48.542;12.270;2022-12-18T15:20:09;-4.50;99.90
20524;DHT22;10420;48.542;12.270;2022-12-18T15:25:34;-4.60;99.90
20524;DHT22;10420;48.542;12.270;2022-12-18T15:30:37;-4.80;99.90
20524;DHT22;10420;48.542;12.270;2022-12-18T15:35:37;-4.80;99.90
20524;DHT22;10420;48.542;12.270;2022-12-18T15:40:38;-4.80;99.90
20524;DHT22;10420;48.542;12.270;2022-12-18T15:45:38;-4.80;99.90
20524;DHT22;10420;48.542;12.270;2022-12-18T15:50:39;-4.90;99.90
20524;DHT22;10420;48.542;12.270;2022-12-18T15:55:40;-5.10;99.90
20524;DHT22;10420;48.542;12.270;2022-12-18T16:01:00;-5.20;99.90
20524;DHT22;10420;48.542;12.270;2022-12-18T16:06:01;-5.40;99.90
20524;DHT22;10420;48.542;12.270;2022-12-18T16:11:02;-5.50;99.90
20524;DHT22;10420;48.542;12.270;2022-12-18T16:16:03;-5.50;99.90
20524;DHT22;10420;48.542;12.270;2022-12-18T16:21:04;-5.60;99.90
20524;DHT22;10420;48.542;12.270;2022-12-18T16:26:04;-5.60;99.90
20524;DHT22;10420;48.542;12.270;2022-12-18T16:31:05;-5.70;99.90
20524;DHT22;10420;48.542;12.270;2022-12-18T16:36:06;-5.90;99.90
20524;DHT22;10420;48.542;12.270;2022-12-18T16:41:19;-6.00;99.90
20524;DHT22;10420;48.542;12.270;2022-12-18T16:46:31;-6.10;99.90
20524;DHT22;10420;48.542;12.270;2022-12-18T16:51:33;-6.20;99.90
20524;DHT22;10420;48.542;12.270;2022-12-18T16:56:34;-6.40;99.90
20524;DHT22;10420;48.542;12.270;2022-12-18T17:01:35;-6.40;99.90
20524;DHT22;10420;48.542;12.270;2022-12-18T17:06:44;-6.40;99.90
20524;DHT22;10420;48.542;12.270;2022-12-18T17:11:44;-6.50;99.90
20524;DHT22;10420;48.542;12.270;2022-12-18T17:16:45;-6.60;99.90
20524;DHT22;10420;48.542;12.270;2022-12-18T17:21:48;-6.60;99.90
20524;DHT22;10420;48.542;12.270;2022-12-18T17:26:49;-6.70;99.90
20524;DHT22;10420;48.542;12.270;2022-12-18T17:31:50;-6.80;99.90
20524;DHT22;10420;48.542;12.270;2022-12-18T17:36:50;-6.90;99.90
20524;DHT22;10420;48.542;12.270;2022-12-18T17:41:51;-7.00;99.90
20524;DHT22;10420;48.542;12.270;2022-12-18T17:46:52;-7.10;99.90
20524;DHT22;10420;48.542;12.270;2022-12-18T17:51:52;-7.20;99.90
20524;DHT22;10420;48.542;12.270;2022-12-18T17:56:53;-7.40;99.90
20524;DHT22;10420;48.542;12.270;2022-12-18T18:01:55;-7.40;99.90
20524;DHT22;10420;48.542;12.270;2022-12-18T18:06:55;-7.40;99.90
20524;DHT22;10420;48.542;12.270;2022-12-18T18:11:56;-7.40;99.90
20524;DHT22;10420;48.542;12.270;2022-12-18T18:17:15;-7.60;99.90
20524;DHT22;10420;48.542;12.270;2022-12-18T18:22:15;-7.50;99.90
20524;DHT22;10420;48.542;12.270;2022-12-18T18:27:16;-7.70;99.90
20524;DHT22;10420;48.542;12.270;2022-12-18T18:32:17;-7.60;99.90
20524;DHT22;10420;48.542;12.270;2022-12-18T18:37:17;-7.70;99.90
20524;DHT22;10420;48.542;12.270;2022-12-18T18:42:18;-7.70;99.90
20524;DHT22;10420;48.542;12.270;2022-12-18T18:47:19;-7.70;99.90
20524;DHT22;10420;48.542;12.270;2022-12-18T18:52:20;-7.80;99.90
20524;DHT22;10420;48.542;12.270;2022-12-18T18:57:24;-7.70;99.90
20524;DHT22;10420;48.542;12.270;2022-12-18T19:02:24;-7.80;99.90
20524;DHT22;10420;48.542;12.270;2022-12-18T19:07:25;-7.80;99.90
20524;DHT22;10420;48.542;12.270;2022-12-18T19:12:26;-7.50;99.90
20524;DHT22;10420;48.542;12.270;2022-12-18T19:17:45;-7.20;99.90
20524;DHT22;10420;48.542;12.270;2022-12-18T19:22:48;-6.80;99.90
20524;DHT22;10420;48.542;12.270;2022-12-18T19:27:49;-6.70;99.90
20524;DHT22;10420;48.542;12.270;2022-12-18T19:32:49;-6.50;99.90
20524;DHT22;10420;48.542;12.270;2022-12-18T19:37:50;-6.40;99.90
20524;DHT22;10420;48.542;12.270;2022-12-18T19:42:51;-6.40;99.90
20524;DHT22;10420;48.542;12.270;2022-12-18T19:47:51;-6.20;99.90
20524;DHT22;10420;48.542;12.270;2022-12-18T19:52:52;-6.30;99.90
20524;DHT22;10420;48.542;12.270;2022-12-18T19:57:53;-6.10;99.90
20524;DHT22;10420;48.542;12.270;2022-12-18T20:02:53;-6.10;99.90
20524;DHT22;10420;48.542;12.270;2022-12-18T20:07:54;-6.10;99.90
20524;DHT22;10420;48.542;12.270;2022-12-18T20:12:54;-5.90;99.90
20524;DHT22;10420;48.542;12.270;2022-12-18T20:17:55;-5.90;99.90
20524;DHT22;10420;48.542;12.270;2022-12-18T20:22:56;-5.90;99.90
20524;DHT22;10420;48.542;12.270;2022-12-18T20:27:56;-5.80;99.90
20524;DHT22;10420;48.542;12.270;2022-12-18T20:32:57;-5.80;99.90
20524;DHT22;10420;48.542;12.270;2022-12-18T20:37:58;-5.70;99.90
20524;DHT22;10420;48.542;12.270;2022-12-18T20:42:59;-5.60;99.90
20524;DHT22;10420;48.542;12.270;2022-12-18T20:47:59;-5.50;99.90
20524;DHT22;10420;48.542;12.270;2022-12-18T20:53:01;-5.50;99.90
20524;DHT22;10420;48.542;12.270;2022-12-18T20:58:01;-5.50;99.90
20524;DHT22;10420;48.542;12.270;2022-12-18T21:03:02;-5.40;99.90
20524;DHT22;10420;48.542;12.270;2022-12-18T21:08:04;-5.40;99.90
20524;DHT22;10420;48.542;12.270;2022-12-18T21:13:04;-5.30;99.90
20524;DHT22;10420;48.542;12.270;2022-12-18T21:18:05;-5.30;99.90
20524;DHT22;10420;48.542;12.270;2022-12-18T21:23:06;-5.30;99.90
20524;DHT22;10420;48.542;12.270;2022-12-18T21:28:07;-5.30;99.90
20524;DHT22;10420;48.542;12.270;2022-12-18T21:33:07;-5.10;99.90
20524;DHT22;10420;48.542;12.270;2022-12-18T21:38:08;-5.00;99.90
20524;DHT22;10420;48.542;12.270;2022-12-18T21:43:09;-5.00;99.90
20524;DHT22;10420;48.542;12.270;2022-12-18T21:48:28;-5.10;99.90
20524;DHT22;10420;48.542;12.270;2022-12-18T21:53:29;-5.10;99.90
20524;DHT22;10420;48.542;12.270;2022-12-18T21:58:29;-5.00;99.90
20524;DHT22;10420;48.542;12.270;2022-12-18T22:03:30;-5.00;99.90
20524;DHT22;10420;48.542;12.270;2022-12-18T22:08:30;-5.00;99.90
20524;DHT22;10420;48.542;12.270;2022-12-18T22:13:31;-5.00;99.90
20524;DHT22;10420;48.542;12.270;2022-12-18T22:18:32;-5.00;99.90
20524;DHT22;10420;48.542;12.270;2022-12-18T22:23:32;-5.10;99.90
20524;DHT22;10420;48.542;12.270;2022-12-18T22:28:33;-4.90;99.90
20524;DHT22;10420;48.542;12.270;2022-12-18T22:33:52;-5.00;99.90
20524;DHT22;10420;48.542;12.270;2022-12-18T22:38:53;-5.00;99.90
20524;DHT22;10420;48.542;12.270;2022-12-18T22:43:54;-5.00;99.90
20524;DHT22;10420;48.542;12.270;2022-12-18T22:48:54;-5.20;99.90
20524;DHT22;10420;48.542;12.270;2022-12-18T22:53:55;-5.10;99.90
20524;DHT22;10420;48.542;12.270;2022-12-18T22:58:56;-5.00;99.90
20524;DHT22;10420;48.542;12.270;2022-12-18T23:03:57;-5.00;99.90
20524;DHT22;10420;48.542;12.270;2022-12-18T23:08:58;-5.00;99.90
20524;DHT22;10420;48.542;12.270;2022-12-18T23:13:59;-5.10;99.90
20524;DHT22;10420;48.542;12.270;2022-12-18T23:18:59;-5.10;99.90
20524;DHT22;10420;48.542;12.270;2022-12-18T23:24:00;-4.90;99.90
20524;DHT22;10420;48.542;12.270;2022-12-18T23:29:01;-5.00;99.90
20524;DHT22;10420;48.542;12.270;2022-12-18T23:34:04;-5.00;99.90
20524;DHT22;10420;48.542;12.270;2022-12-18T23:39:05;-5.00;99.90
20524;DHT22;10420;48.542;12.270;2022-12-18T23:44:06;-5.00;99.90
20524;DHT22;10420;48.542;12.270;2022-12-18T23:49:08;-5.00;99.90
20524;DHT22;10420;48.542;12.270;2022-12-18T23:54:08;-5.00;99.90
20524;DHT22;10420;48.542;12.270;2022-12-18T23:59:09;-5.00;99.90
